Time;durP1;ratioP1;P1;durP2;ratioP2;P2;SDS_P1;SDS_P2;PMS_P1;PMS_P2;Temp;Humidity;BMP_temperature;BMP_pressure;BME280_temperature;BME280_humidity;BME280_pressure;Samples;Min_cycle;Max_cycle;Signal;HPM_P1;HPM_P2
2022/06/29 00:01:55;;;;;;;3.38;1.67;;;16.10;99.90;;;;;;5035258;28;20057;-48
2022/06/29 00:04:21;;;;;;;3.90;1.55;;;16.10;99.90;;;;;;5035290;28;20038;-49
2022/06/29 00:06:47;;;;;;;3.20;1.67;;;16.10;99.90;;;;;;5035265;28;20038;-48
2022/06/29 00:09:12;;;;;;;3.03;1.70;;;16.00;99.90;;;;;;5035437;28;20534;-52
2022/06/29 00:11:38;;;;;;;3.22;1.60;;;16.10;99.90;;;;;;5035174;28;20052;-51
2022/06/29 00:14:04;;;;;;;2.67;1.35;;;16.00;99.90;;;;;;5035130;28;20034;-50
2022/06/29 00:16:30;;;;;;;2.70;1.50;;;16.00;99.90;;;;;;5034886;28;20041;-53
2022/06/29 00:18:56;;;;;;;4.78;1.75;;;16.00;99.90;;;;;;5035413;28;20077;-48
2022/06/29 00:21:21;;;;;;;3.55;1.58;;;16.00;99.90;;;;;;5034793;28;20041;-49
2022/06/29 00:23:47;;;;;;;2.25;1.65;;;15.90;99.90;;;;;;5034744;28;20045;-49
2022/06/29 00:26:13;;;;;;;4.55;2.17;;;15.90;99.90;;;;;;5017214;28;20054;-48
2022/06/29 00:28:38;;;;;;;2.72;1.63;;;15.90;99.90;;;;;;5016458;28;20519;-49
2022/06/29 00:31:04;;;;;;;3.97;2.03;;;15.90;99.90;;;;;;5034786;28;20128;-51
2022/06/29 00:33:30;;;;;;;4.22;1.70;;;15.80;99.90;;;;;;5034769;28;20045;-53
2022/06/29 00:35:55;;;;;;;3.30;1.83;;;15.80;99.90;;;;;;5034643;28;20503;-54
2022/06/29 00:38:21;;;;;;;3.75;1.95;;;15.70;99.90;;;;;;5034556;28;20041;-53
2022/06/29 00:40:46;;;;;;;3.58;1.90;;;15.70;99.90;;;;;;5034611;28;20042;-51
2022/06/29 00:43:12;;;;;;;5.47;2.00;;;15.60;99.90;;;;;;5034599;28;20045;-52
2022/06/29 00:45:37;;;;;;;5.55;2.53;;;15.60;99.90;;;;;;5034386;28;20042;-49
2022/06/29 00:48:04;;;;;;;2.70;1.70;;;15.60;99.90;;;;;;5034379;28;20068;-49
2022/06/29 00:50:32;;;;;;;3.28;1.70;;;15.50;99.90;;;;;;5034318;28;20103;-48
2022/06/29 00:53:05;;;;;;;;;;;15.50;99.90;;;;;;5016964;28;20573;-52
2022/06/29 00:55:32;;;;;;;3.30;1.75;;;15.50;99.90;;;;;;5034456;28;20008;-52
2022/06/29 00:58:06;;;;;;;4.30;1.90;;;15.40;99.90;;;;;;5034493;28;20037;-50
2022/06/29 01:00:34;;;;;;;3.63;1.77;;;15.40;99.90;;;;;;5034289;28;20045;-50
2022/06/29 01:03:00;;;;;;;4.35;1.95;;;15.40;99.90;;;;;;5034034;28;20120;-49
2022/06/29 01:05:27;;;;;;;3.05;1.70;;;15.30;99.90;;;;;;5016345;28;20466;-51
2022/06/29 01:07:53;;;;;;;3.55;1.95;;;15.30;99.90;;;;;;5034177;28;20376;-52
2022/06/29 01:10:20;;;;;;;3.20;1.90;;;15.30;99.90;;;;;;5034070;28;20046;-52
2022/06/29 01:12:53;;;;;;;3.22;2.20;;;15.20;99.90;;;;;;5016125;28;21114;-49
2022/06/29 01:15:19;;;;;;;3.47;1.92;;;15.20;99.90;;;;;;5016094;28;20488;-49
2022/06/29 01:17:45;;;;;;;2.22;2.00;;;15.20;99.90;;;;;;5033900;28;20083;-48
2022/06/29 01:20:12;;;;;;;3.55;2.05;;;15.10;99.90;;;;;;5033457;28;20045;-53
2022/06/29 01:22:38;;;;;;;3.22;1.83;;;15.10;99.90;;;;;;5016073;28;20099;-53
2022/06/29 01:25:04;;;;;;;2.58;2.08;;;15.10;99.90;;;;;;5033698;28;20037;-49
2022/06/29 01:27:30;;;;;;;3.97;2.10;;;15.10;99.90;;;;;;5033556;28;20480;-50
2022/06/29 01:29:56;;;;;;;4.40;2.28;;;15.10;99.90;;;;;;5033677;28;20053;-48
2022/06/29 01:32:22;;;;;;;4.32;2.20;;;15.10;99.90;;;;;;5033611;28;20510;-48
2022/06/29 01:34:48;;;;;;;3.47;2.00;;;15.10;99.90;;;;;;5033319;28;20550;-49
2022/06/29 01:37:14;;;;;;;4.78;2.20;;;15.10;99.90;;;;;;5033234;28;20125;-51
2022/06/29 01:39:40;;;;;;;4.63;1.98;;;15.10;99.90;;;;;;5015767;28;20033;-53
2022/06/29 01:42:07;;;;;;;2.40;2.00;;;15.00;99.90;;;;;;5033407;28;20381;-52
2022/06/29 01:44:34;;;;;;;4.97;2.22;;;15.00;99.90;;;;;;5033342;28;20114;-50
2022/06/29 01:47:00;;;;;;;4.38;2.17;;;15.00;99.90;;;;;;5033394;28;20050;-53
2022/06/29 01:49:26;;;;;;;2.97;1.98;;;14.90;99.90;;;;;;5015494;28;20056;-51
2022/06/29 01:51:52;;;;;;;5.15;2.17;;;14.90;99.90;;;;;;5033079;28;20057;-49
2022/06/29 01:54:18;;;;;;;3.50;2.10;;;14.90;99.90;;;;;;5033263;28;20518;-50
2022/06/29 01:56:43;;;;;;;3.95;2.50;;;14.90;99.90;;;;;;5033270;28;20048;-51
2022/06/29 01:59:09;;;;;;;4.57;2.28;;;14.90;99.90;;;;;;5033138;28;20072;-53
2022/06/29 02:01:34;;;;;;;5.88;2.50;;;14.90;99.90;;;;;;5033597;28;20084;-52
2022/06/29 02:04:00;;;;;;;3.25;2.20;;;14.80;99.90;;;;;;5033173;28;20071;-52
2022/06/29 02:06:26;;;;;;;2.38;2.20;;;14.80;99.90;;;;;;5033117;28;20037;-49
2022/06/29 02:08:52;;;;;;;3.00;2.40;;;14.80;99.90;;;;;;5033100;28;20041;-50
2022/06/29 02:11:18;;;;;;;4.53;2.65;;;14.80;99.90;;;;;;5032914;28;20408;-47
2022/06/29 02:13:43;;;;;;;4.28;2.28;;;14.70;99.90;;;;;;5032968;28;20045;-51
2022/06/29 02:16:10;;;;;;;4.97;2.35;;;;;;;;;;5032933;28;20125;-49
2022/06/29 02:18:35;;;;;;;4.18;2.50;;;14.80;99.90;;;;;;5032766;28;20704;-48
2022/06/29 02:21:01;;;;;;;3.45;2.75;;;14.70;99.90;;;;;;5032842;28;20124;-52
2022/06/29 02:23:27;;;;;;;5.22;2.70;;;14.80;99.90;;;;;;5032710;28;20396;-51
2022/06/29 02:25:52;;;;;;;2.47;2.20;;;14.70;99.90;;;;;;5032990;28;20037;-48
2022/06/29 02:28:18;;;;;;;3.55;2.65;;;14.70;99.90;;;;;;5032793;28;20488;-49
2022/06/29 02:36:12;;;;;;;5.53;3.10;;;14.60;99.90;;;;;;5033135;28;20056;-49
2022/06/29 02:38:38;;;;;;;3.22;2.30;;;14.60;99.90;;;;;;5032757;28;20041;-49
2022/06/29 02:41:04;;;;;;;3.90;2.58;;;14.60;99.90;;;;;;5032677;28;20049;-49
2022/06/29 02:43:29;;;;;;;5.28;2.80;;;14.60;99.90;;;;;;5032555;28;20050;-49
2022/06/29 02:45:55;;;;;;;4.22;2.70;;;14.60;99.90;;;;;;5032862;28;20490;-48
2022/06/29 02:48:21;;;;;;;5.15;2.88;;;14.60;99.90;;;;;;5032795;28;20046;-48
2022/06/29 02:50:46;;;;;;;3.90;2.80;;;14.60;99.90;;;;;;5034053;28;20041;-53
2022/06/29 02:53:12;;;;;;;5.28;2.92;;;14.50;99.90;;;;;;5036399;28;20132;-53
2022/06/29 02:55:38;;;;;;;4.28;2.85;;;14.50;99.90;;;;;;5036393;28;20042;-49
2022/06/29 02:58:03;;;;;;;4.20;2.50;;;14.50;99.90;;;;;;5035221;28;20053;-49
2022/06/29 03:00:29;;;;;;;4.03;3.03;;;14.50;99.90;;;;;;5036546;28;20116;-50
2022/06/29 03:02:55;;;;;;;4.95;2.53;;;14.50;99.90;;;;;;5036469;28;20037;-48
2022/06/29 03:05:20;;;;;;;6.80;3.08;;;14.40;99.90;;;;;;5036342;28;20380;-49
2022/06/29 03:07:46;;;;;;;5.15;3.20;;;14.40;99.90;;;;;;5018550;28;20098;-48
2022/06/29 03:10:12;;;;;;;3.40;2.97;;;14.40;99.90;;;;;;5036366;28;20037;-47
2022/06/29 03:12:37;;;;;;;4.53;2.92;;;14.40;99.90;;;;;;5036168;28;20064;-51
2022/06/29 03:15:04;;;;;;;3.95;2.58;;;14.40;99.90;;;;;;5036002;28;20042;-49
2022/06/29 03:17:29;;;;;;;3.47;3.03;;;14.40;99.90;;;;;;5036210;28;20124;-48
2022/06/29 03:19:55;;;;;;;4.75;2.80;;;14.40;99.90;;;;;;5036196;28;20140;-48
2022/06/29 03:22:21;;;;;;;4.20;3.00;;;14.40;99.90;;;;;;5036090;28;20077;-51
2022/06/29 03:24:46;;;;;;;3.28;2.80;;;14.40;99.90;;;;;;5036034;28;20037;-48
2022/06/29 03:27:12;;;;;;;5.47;3.10;;;14.40;99.90;;;;;;5035964;28;20041;-48
2022/06/29 03:29:37;;;;;;;5.15;3.28;;;14.40;99.90;;;;;;5036011;28;20125;-49
2022/06/29 03:32:03;;;;;;;4.53;3.10;;;14.40;99.90;;;;;;5035823;28;20045;-52
2022/06/29 03:34:29;;;;;;;3.90;2.83;;;14.40;99.90;;;;;;5035812;28;20049;-51
2022/06/29 03:36:54;;;;;;;3.17;2.80;;;14.40;99.90;;;;;;5035804;28;20484;-52
2022/06/29 03:39:20;;;;;;;5.10;3.20;;;14.40;99.90;;;;;;5035690;28;20117;-48
2022/06/29 03:41:46;;;;;;;3.53;3.22;;;14.40;99.90;;;;;;5035589;28;20041;-48
2022/06/29 03:44:11;;;;;;;3.90;3.50;;;14.40;99.90;;;;;;5035748;28;20124;-47
2022/06/29 03:46:37;;;;;;;3.95;2.85;;;14.40;99.90;;;;;;5035766;28;20041;-49
2022/06/29 03:49:02;;;;;;;5.15;3.35;;;14.30;99.90;;;;;;5017958;28;20127;-48
2022/06/29 03:51:28;;;;;;;3.90;3.55;;;14.40;99.90;;;;;;5035278;28;20401;-48
2022/06/29 03:53:53;;;;;;;5.03;3.47;;;14.30;99.90;;;;;;5035691;28;20136;-48
2022/06/29 03:56:19;;;;;;;3.95;3.30;;;14.30;99.90;;;;;;5035316;28;20107;-50
2022/06/29 03:58:45;;;;;;;4.97;3.58;;;14.30;99.90;;;;;;5035482;28;20041;-50
2022/06/29 04:01:11;;;;;;;5.88;3.45;;;14.30;99.90;;;;;;5035103;28;20586;-48
2022/06/29 04:03:37;;;;;;;3.50;3.13;;;14.30;99.90;;;;;;5034317;28;20053;-51
2022/06/29 04:06:02;;;;;;;6.13;3.25;;;14.30;99.90;;;;;;5035300;28;20038;-49
2022/06/29 04:08:28;;;;;;;3.33;3.03;;;14.30;99.90;;;;;;5035239;28;20041;-49
2022/06/29 04:10:53;;;;;;;3.65;3.10;;;14.30;99.90;;;;;;5035125;28;20411;-52
2022/06/29 04:13:19;;;;;;;3.88;3.33;;;14.30;99.90;;;;;;5035361;28;20050;-49
2022/06/29 04:15:44;;;;;;;4.30;3.13;;;14.30;99.90;;;;;;5035118;28;20050;-49
2022/06/29 04:18:10;;;;;;;3.75;3.40;;;14.40;99.90;;;;;;5017510;28;20042;-50
2022/06/29 04:23:20;;;;;;;4.03;3.63;;;14.40;99.90;;;;;;5034921;28;20115;-48
2022/06/29 04:25:45;;;;;;;6.05;3.70;;;14.40;99.90;;;;;;5035128;28;20049;-47
2022/06/29 04:28:11;;;;;;;4.00;3.65;;;14.40;99.90;;;;;;5034888;28;20052;-48
2022/06/29 04:30:36;;;;;;;5.72;3.90;;;14.50;99.90;;;;;;5034692;28;20042;-48
2022/06/29 04:33:02;;;;;;;5.82;4.07;;;14.50;99.90;;;;;;5034811;28;20045;-49
2022/06/29 04:35:28;;;;;;;4.40;4.00;;;14.60;99.90;;;;;;5034756;28;20071;-50
2022/06/29 04:37:53;;;;;;;4.15;3.75;;;14.70;99.90;;;;;;5034904;28;20124;-49
2022/06/29 04:40:19;;;;;;;5.43;4.07;;;15.70;99.90;;;;;;5033338;28;20049;-52
2022/06/29 04:42:44;;;;;;;4.05;3.75;;;16.80;99.90;;;;;;5017063;28;20075;-51
2022/06/29 04:46:19;;;;;;;4.57;3.88;;;17.80;99.90;;;;;;5034513;28;20049;-50
2022/06/29 04:48:02;;;;;;;3.95;3.30;;;18.40;99.90;;;;;;5016715;28;20049;-48
2022/06/29 04:50:29;;;;;;;6.07;3.72;;;19.40;99.90;;;;;;5034293;28;20048;-51
2022/06/29 04:52:54;;;;;;;5.05;3.25;;;20.20;99.90;;;;;;5034058;28;20064;-49
2022/06/29 04:55:20;;;;;;;4.15;3.53;;;20.90;99.90;;;;;;5034417;28;20450;-50
2022/06/29 04:57:46;;;;;;;5.68;3.75;;;21.40;99.90;;;;;;5034502;28;20049;-50
2022/06/29 05:00:12;;;;;;;4.53;3.20;;;21.90;99.90;;;;;;5016442;28;20038;-52
2022/06/29 05:02:38;;;;;;;3.55;3.13;;;22.10;99.90;;;;;;5034026;28;20064;-53
2022/06/29 05:05:04;;;;;;;3.35;2.75;;;22.40;99.90;;;;;;5034182;28;20034;-53
2022/06/29 05:07:29;;;;;;;3.33;3.03;;;22.60;99.90;;;;;;5034094;28;20531;-54
2022/06/29 05:09:55;;;;;;;5.50;2.92;;;22.70;99.90;;;;;;5033917;28;20076;-51
2022/06/29 05:12:20;;;;;;;4.32;2.97;;;23.00;99.90;;;;;;5034139;28;20049;-52
2022/06/29 05:14:46;;;;;;;3.22;2.67;;;23.80;99.90;;;;;;5033806;28;20049;-53
2022/06/29 05:17:12;;;;;;;4.13;3.00;;;24.30;99.00;;;;;;5033985;28;20095;-52
2022/06/29 05:19:37;;;;;;;4.13;2.80;;;24.30;99.20;;;;;;5033688;28;20042;-52
2022/06/29 05:22:03;;;;;;;3.20;2.60;;;24.80;98.20;;;;;;5033893;28;20045;-53
2022/06/29 05:24:29;;;;;;;2.80;2.55;;;24.70;96.50;;;;;;5015981;28;20507;-52
2022/06/29 05:26:54;;;;;;;3.25;2.95;;;25.30;96.00;;;;;;5033812;28;20048;-50
2022/06/29 05:29:20;;;;;;;3.45;2.85;;;25.40;95.40;;;;;;5032451;28;20042;-51
2022/06/29 05:31:46;;;;;;;5.00;2.88;;;25.90;94.50;;;;;;5033567;28;20042;-53
2022/06/29 05:34:11;;;;;;;3.80;2.45;;;25.90;94.00;;;;;;5033457;28;20088;-53
2022/06/29 05:36:37;;;;;;;3.53;2.63;;;26.00;93.10;;;;;;5033502;28;20052;-51
2022/06/29 05:39:03;;;;;;;3.05;2.60;;;26.00;92.50;;;;;;5033467;28;20064;-54
2022/06/29 05:41:28;;;;;;;2.50;2.30;;;26.30;91.80;;;;;;5033395;28;20096;-51
2022/06/29 05:43:54;;;;;;;4.40;2.58;;;26.00;92.50;;;;;;5033396;28;20460;-49
2022/06/29 05:46:22;;;;;;;4.63;2.80;;;26.30;92.40;;;;;;5033578;28;20381;-50
2022/06/29 05:48:47;;;;;;;3.00;2.70;;;26.00;91.40;;;;;;5033374;28;20053;-51
2022/06/29 05:51:13;;;;;;;3.65;2.53;;;26.50;90.60;;;;;;5033437;28;20068;-50
2022/06/29 05:53:39;;;;;;;4.68;2.90;;;26.30;90.90;;;;;;5032906;28;20394;-51
2022/06/29 05:56:04;;;;;;;4.32;2.95;;;26.20;88.60;;;;;;5033215;28;20045;-52
2022/06/29 05:58:30;;;;;;;3.13;2.53;;;26.40;89.00;;;;;;5033338;28;20044;-52
2022/06/29 06:00:55;;;;;;;5.75;2.90;;;26.90;90.20;;;;;;5033133;28;20450;-50
2022/06/29 06:03:21;;;;;;;8.25;3.28;;;26.70;86.40;;;;;;5033076;28;20042;-53
2022/06/29 06:05:47;;;;;;;4.05;2.80;;;26.60;87.10;;;;;;5033205;28;20037;-53
2022/06/29 06:08:15;;;;;;;4.43;2.88;;;26.80;86.90;;;;;;5033196;28;20147;-53
2022/06/29 06:10:41;;;;;;;5.70;3.00;;;27.70;87.40;;;;;;5033123;28;20045;-53
2022/06/29 06:13:07;;;;;;;3.42;2.80;;;27.50;84.50;;;;;;5033004;28;20037;-50
2022/06/29 06:15:34;;;;;;;4.03;3.17;;;27.90;82.90;;;;;;5033093;28;20076;-53
2022/06/29 06:18:01;;;;;;;3.03;2.70;;;27.50;82.50;;;;;;5032754;28;20046;-52
2022/06/29 06:20:27;;;;;;;3.47;2.90;;;27.60;83.80;;;;;;5033038;28;20053;-50
2022/06/29 06:22:53;;;;;;;3.85;2.83;;;27.10;82.60;;;;;;5032288;28;20084;-50
2022/06/29 06:25:18;;;;;;;4.38;2.70;;;27.50;84.60;;;;;;5031452;28;20049;-52
2022/06/29 06:27:44;;;;;;;3.60;2.65;;;28.10;82.90;;;;;;5031972;28;20152;-50
2022/06/29 06:30:10;;;;;;;2.70;2.47;;;27.70;81.80;;;;;;5030866;28;20476;-51
2022/06/29 06:32:36;;;;;;;3.35;2.58;;;28.00;80.50;;;;;;5032736;28;20099;-51
2022/06/29 06:35:01;;;;;;;4.53;2.65;;;27.70;79.20;;;;;;5032784;28;20037;-52
2022/06/29 06:37:27;;;;;;;3.80;2.70;;;27.90;78.50;;;;;;5032880;28;20046;-50
2022/06/29 06:42:37;;;;;;;3.60;2.30;;;27.90;78.20;;;;;;5032727;28;20473;-51
2022/06/29 06:45:04;;;;;;;3.20;2.60;;;28.00;79.40;;;;;;5032619;28;20121;-51
2022/06/29 06:47:29;;;;;;;2.93;2.23;;;28.00;79.10;;;;;;5032518;28;20428;-49
2022/06/29 06:49:56;;;;;;;3.00;2.10;;;28.20;77.00;;;;;;5032721;28;20088;-50
2022/06/29 06:52:21;;;;;;;5.10;2.35;;;27.90;76.50;;;;;;5032382;28;20053;-52
2022/06/29 06:54:47;;;;;;;2.95;2.40;;;27.90;75.90;;;;;;5031641;28;20546;-53
2022/06/29 06:57:12;;;;;;;5.18;2.28;;;28.60;78.60;;;;;;5032567;28;20037;-51
2022/06/29 06:59:38;;;;;;;2.80;2.22;;;28.30;75.10;;;;;;5032666;28;20038;-51
2022/06/29 07:02:04;;;;;;;3.85;2.20;;;28.30;76.30;;;;;;5032670;28;20124;-53
2022/06/29 07:04:29;;;;;;;2.88;2.15;;;27.60;76.20;;;;;;5031814;28;20100;-49
2022/06/29 07:06:55;;;;;;;2.35;2.10;;;28.30;77.40;;;;;;5031751;28;20046;-51
2022/06/29 07:09:21;;;;;;;2.30;2.10;;;28.00;76.60;;;;;;5031691;28;20042;-50
2022/06/29 07:11:46;;;;;;;2.88;2.15;;;27.70;75.90;;;;;;5013962;28;20087;-53
2022/06/29 07:14:12;;;;;;;2.92;2.13;;;27.20;76.60;;;;;;5031373;28;20033;-48
2022/06/29 07:16:38;;;;;;;4.65;2.30;;;28.10;76.30;;;;;;5031299;28;20116;-52
2022/06/29 07:19:04;;;;;;;2.80;2.08;;;28.00;76.40;;;;;;5031203;28;20041;-49
2022/06/29 07:21:30;;;;;;;2.53;1.77;;;27.20;74.70;;;;;;5031760;28;20045;-52
2022/06/29 07:23:58;;;;;;;5.38;2.10;;;;;;;;;;5031707;28;20042;-48
2022/06/29 07:26:27;;;;;;;2.38;1.83;;;26.60;93.70;;;;;;5031597;28;20050;-48
2022/06/29 07:28:53;;;;;;;2.45;1.63;;;27.10;76.60;;;;;;5014062;28;20053;-49
2022/06/29 07:31:18;;;;;;;2.08;1.88;;;27.70;79.40;;;;;;5031656;28;20050;-49
2022/06/29 07:33:44;;;;;;;3.55;2.08;;;28.40;78.10;;;;;;5031444;28;20438;-51
2022/06/29 07:36:10;;;;;;;3.15;1.92;;;27.90;74.80;;;;;;5032570;28;20037;-52
2022/06/29 07:38:35;;;;;;;2.53;1.80;;;27.50;76.00;;;;;;5035789;28;20404;-50
2022/06/29 07:41:01;;;;;;;2.22;1.95;;;27.20;77.00;;;;;;5017966;28;20052;-53
2022/06/29 07:43:30;;;;;;;3.70;2.17;;;27.00;76.00;;;;;;5017906;28;20041;-52
2022/06/29 07:45:59;;;;;;;2.75;1.90;;;26.20;76.20;;;;;;5035565;28;20468;-52
2022/06/29 07:48:25;;;;;;;5.05;2.00;;;25.70;78.80;;;;;;5035440;28;20056;-49
2022/06/29 07:50:51;;;;;;;2.10;1.90;;;25.80;82.60;;;;;;5035041;28;20041;-48
2022/06/29 07:53:18;;;;;;;3.17;2.10;;;25.60;80.90;;;;;;5035166;28;20106;-49
2022/06/29 07:55:44;;;;;;;2.10;1.90;;;25.00;81.70;;;;;;5035587;28;20049;-50
2022/06/29 07:58:14;;;;;;;2.95;1.92;;;25.20;82.80;;;;;;5035286;28;20041;-52
2022/06/29 08:00:39;;;;;;;2.85;2.13;;;25.60;84.20;;;;;;5035615;28;20038;-49
2022/06/29 08:03:05;;;;;;;6.38;2.25;;;25.70;83.80;;;;;;5035414;28;20168;-51
2022/06/29 08:05:31;;;;;;;2.10;1.50;;;25.70;83.70;;;;;;5035231;28;20385;-52
2022/06/29 08:07:56;;;;;;;2.08;1.83;;;25.80;83.80;;;;;;5017208;28;20042;-52
2022/06/29 08:10:22;;;;;;;5.03;1.90;;;25.50;82.50;;;;;;5034699;28;20077;-50
2022/06/29 08:12:47;;;;;;;2.80;1.30;;;25.70;84.40;;;;;;5034666;28;20041;-52
2022/06/29 08:15:15;;;;;;;3.50;1.60;;;26.00;82.00;;;;;;5016955;28;20037;-51
2022/06/29 08:17:41;;;;;;;3.47;1.73;;;26.20;82.00;;;;;;5034621;28;20555;-52
2022/06/29 08:20:07;;;;;;;2.45;1.50;;;25.80;80.50;;;;;;5034616;28;20121;-50
2022/06/29 08:22:33;;;;;;;2.20;1.70;;;26.00;79.40;;;;;;5034556;28;20091;-49
2022/06/29 08:24:59;;;;;;;5.38;1.60;;;25.80;80.30;;;;;;5034196;28;20065;-52
2022/06/29 08:27:25;;;;;;;3.30;1.60;;;26.20;80.40;;;;;;5034245;28;20045;-48
2022/06/29 08:29:51;;;;;;;3.05;1.55;;;26.30;80.80;;;;;;5016774;28;20111;-51
2022/06/29 08:32:17;;;;;;;3.25;1.60;;;26.00;79.50;;;;;;5033312;28;20480;-49
2022/06/29 08:34:42;;;;;;;2.47;1.48;;;25.90;77.10;;;;;;5034807;28;20095;-49
2022/06/29 08:37:08;;;;;;;5.25;1.60;;;26.20;78.30;;;;;;5034533;28;20050;-48
2022/06/29 08:39:34;;;;;;;1.80;1.30;;;26.10;78.40;;;;;;5034428;28;20044;-52
2022/06/29 08:42:03;;;;;;;5.65;1.90;;;26.50;79.80;;;;;;5034639;28;20041;-52
2022/06/29 08:44:33;;;;;;;2.38;1.30;;;26.70;75.50;;;;;;5034675;28;20042;-50
2022/06/29 08:47:06;;;;;;;2.80;1.75;;;26.50;76.00;;;;;;5034585;28;20041;-52
2022/06/29 08:49:32;;;;;;;2.17;1.73;;;26.50;74.60;;;;;;5033822;28;20129;-52
2022/06/29 08:51:58;;;;;;;3.20;1.50;;;26.30;74.50;;;;;;5034051;28;20085;-51
2022/06/29 08:54:25;;;;;;;2.40;1.52;;;26.10;75.20;;;;;;5034280;28;20045;-52
2022/06/29 08:56:56;;;;;;;2.20;1.30;;;26.10;75.10;;;;;;5034195;28;20418;-49
2022/06/29 08:59:22;;;;;;;1.63;1.52;;;26.00;78.30;;;;;;5034152;28;20476;-50
2022/06/29 09:01:52;;;;;;;3.35;1.48;;;25.80;76.80;;;;;;5034226;28;20090;-49
2022/06/29 09:04:19;;;;;;;2.00;1.60;;;25.70;76.90;;;;;;5034287;28;20224;-52
2022/06/29 09:06:45;;;;;;;3.08;1.58;;;26.00;78.20;;;;;;5034025;28;20056;-52
2022/06/29 09:09:12;;;;;;;3.20;1.80;;;26.30;76.90;;;;;;5034319;28;20045;-52
2022/06/29 09:11:43;;;;;;;3.33;1.83;;;26.50;79.10;;;;;;5034208;28;20037;-51
2022/06/29 09:14:09;;;;;;;2.92;1.63;;;26.80;79.70;;;;;;5034112;28;20050;-51
2022/06/29 09:17:07;;;;;;;3.03;1.50;;;27.10;78.90;;;;;;5033916;28;20061;-53
2022/06/29 09:19:36;;;;;;;1.80;1.70;;;27.10;81.80;;;;;;4979599;28;20132;-53
2022/06/29 09:22:02;;;;;;;3.53;1.80;;;26.80;79.50;;;;;;5033769;28;20045;-52
2022/06/29 09:24:35;;;;;;;2.00;1.80;;;26.80;78.80;;;;;;5033873;28;20037;-53
2022/06/29 09:27:11;;;;;;;1.73;1.63;;;26.90;79.40;;;;;;5033794;28;20412;-52
2022/06/29 09:29:39;;;;;;;3.90;1.80;;;27.00;81.30;;;;;;5033601;28;20500;-49
2022/06/29 09:32:05;;;;;;;1.90;1.70;;;27.30;80.80;;;;;;5033630;28;20384;-50
2022/06/29 09:34:31;;;;;;;4.03;1.77;;;27.40;77.10;;;;;;5033773;28;20068;-49
2022/06/29 09:36:58;;;;;;;2.40;1.73;;;27.40;76.60;;;;;;5033563;28;20049;-49
2022/06/29 09:39:38;;;;;;;3.22;1.50;;;27.70;75.50;;;;;;5033358;28;20444;-49
2022/06/29 09:42:08;;;;;;;3.53;1.80;;;27.70;76.30;;;;;;5033230;28;20041;-50
2022/06/29 09:44:34;;;;;;;2.53;1.40;;;27.50;75.20;;;;;;5033504;28;20095;-50
2022/06/29 09:47:04;;;;;;;2.65;1.50;;;27.50;76.00;;;;;;5033555;28;20033;-52
2022/06/29 09:49:32;;;;;;;2.22;1.63;;;27.50;79.50;;;;;;5033627;28;20060;-50
2022/06/29 09:52:00;;;;;;;3.30;2.13;;;27.30;77.90;;;;;;5033014;28;20089;-53
2022/06/29 09:54:40;;;;;;;2.17;1.88;;;27.10;75.60;;;;;;5033361;28;20049;-50
2022/06/29 09:57:10;;;;;;;2.10;1.90;;;27.10;77.00;;;;;;5033380;28;20397;-52
2022/06/29 10:02:37;;;;;;;1.73;1.60;;;27.20;76.50;;;;;;5033174;28;20049;-48
2022/06/29 10:05:17;;;;;;;2.83;1.52;;;27.70;77.30;;;;;;5032997;28;20496;-51
2022/06/29 10:07:45;;;;;;;2.42;1.95;;;27.60;76.90;;;;;;5032984;28;20480;-49
2022/06/29 10:10:13;;;;;;;2.25;1.73;;;27.60;76.50;;;;;;5032514;28;20426;-49
2022/06/29 10:15:57;;;;;;;2.97;1.90;;;27.80;75.80;;;;;;5033193;28;20057;-52
2022/06/29 10:18:53;;;;;;;1.92;1.83;;;27.80;75.20;;;;;;5032994;28;20053;-53
2022/06/29 10:21:23;;;;;;;3.83;2.35;;;27.70;73.30;;;;;;5032936;28;20048;-51
2022/06/29 10:23:51;;;;;;;2.88;2.10;;;28.10;73.40;;;;;;5032834;28;20396;-50
2022/06/29 10:26:35;;;;;;;2.92;2.13;;;27.80;74.00;;;;;;5032963;28;20056;-51
2022/06/29 10:29:09;;;;;;;4.80;2.13;;;27.80;74.00;;;;;;5032993;28;20159;-49
2022/06/29 10:31:50;;;;;;;3.20;2.13;;;27.70;74.80;;;;;;5032783;28;20418;-50
2022/06/29 10:34:30;;;;;;;3.33;2.08;;;27.30;74.70;;;;;;5032596;28;20045;-52
2022/06/29 10:37:09;;;;;;;2.45;2.00;;;27.30;75.50;;;;;;5032742;28;20049;-52
2022/06/29 10:39:34;;;;;;;2.75;2.00;;;27.00;75.00;;;;;;5032739;28;20037;-52
2022/06/29 10:45:03;;;;;;;3.28;2.00;;;26.80;76.30;;;;;;5032497;28;20131;-49
2022/06/29 10:47:29;;;;;;;2.83;1.98;;;27.00;77.20;;;;;;5031345;28;20053;-53
2022/06/29 10:50:13;;;;;;;4.35;2.03;;;27.30;77.20;;;;;;5014929;28;20046;-51
2022/06/29 10:52:40;;;;;;;3.08;2.08;;;27.30;77.60;;;;;;5032135;28;20496;-54
2022/06/29 10:55:06;;;;;;;2.63;2.28;;;27.40;77.20;;;;;;5032452;28;20434;-49
2022/06/29 10:57:37;;;;;;;2.58;2.10;;;27.30;77.60;;;;;;5032657;28;20419;-53
2022/06/29 11:00:07;;;;;;;3.75;1.95;;;27.20;77.30;;;;;;5032450;28;20136;-52
2022/06/29 11:02:32;;;;;;;4.13;1.90;;;27.30;76.80;;;;;;5032499;28;20046;-51
2022/06/29 11:04:58;;;;;;;2.08;1.92;;;27.40;78.00;;;;;;5032470;28;20052;-52
2022/06/29 11:12:54;;;;;;;3.25;1.90;;;27.70;78.90;;;;;;5035553;28;20538;-51
2022/06/29 11:15:41;;;;;;;4.15;2.28;;;27.60;79.20;;;;;;5036167;28;20075;-52
2022/06/29 11:18:08;;;;;;;3.60;2.40;;;27.90;77.70;;;;;;5036103;28;20060;-49
2022/06/29 11:20:34;;;;;;;2.60;2.40;;;27.90;77.20;;;;;;5036195;28;20045;-54
2022/06/29 11:23:00;;;;;;;3.78;2.00;;;27.90;76.90;;;;;;5036193;28;20766;-53
2022/06/29 11:25:26;;;;;;;3.28;2.20;;;27.80;77.70;;;;;;5036208;28;20044;-51
2022/06/29 11:27:52;;;;;;;4.20;2.35;;;27.80;78.20;;;;;;5035966;28;20435;-51
2022/06/29 11:30:22;;;;;;;2.85;2.20;;;27.60;77.40;;;;;;5035825;28;20044;-53
2022/06/29 11:32:49;;;;;;;4.57;2.42;;;27.50;76.50;;;;;;5036030;28;20079;-53
2022/06/29 11:35:21;;;;;;;7.10;2.50;;;27.40;77.80;;;;;;5035756;28;20041;-53
2022/06/29 11:37:53;;;;;;;3.35;2.28;;;27.70;77.60;;;;;;5035837;28;20048;-54
2022/06/29 11:40:41;;;;;;;3.42;2.20;;;27.80;78.00;;;;;;5035837;28;20037;-50
2022/06/29 11:43:24;;;;;;;3.30;2.40;;;27.70;79.30;;;;;;5035604;28;20506;-54
2022/06/29 11:45:53;;;;;;;4.30;2.40;;;27.90;77.60;;;;;;5035730;28;20073;-52
2022/06/29 11:48:27;;;;;;;3.55;2.85;;;28.10;77.50;;;;;;5035552;28;20041;-54
2022/06/29 11:50:52;;;;;;;2.53;2.22;;;27.60;76.80;;;;;;5035646;28;20045;-53
2022/06/29 11:53:44;;;;;;;3.85;2.85;;;27.90;78.60;;;;;;5035031;28;20202;-52
2022/06/29 11:56:11;;;;;;;3.00;2.28;;;28.00;78.40;;;;;;5035573;28;20136;-53
2022/06/29 11:58:38;;;;;;;;;;;28.00;77.50;;;;;;5035860;28;20091;-52
2022/06/29 12:01:09;;;;;;;3.40;2.53;;;28.20;77.20;;;;;;5035283;28;19921;-54
2022/06/29 12:03:35;;;;;;;3.78;2.78;;;28.60;77.50;;;;;;5035421;28;20049;-54
2022/06/29 12:06:02;;;;;;;7.13;2.55;;;28.40;77.00;;;;;;5035192;28;20037;-50
2022/06/29 12:08:29;;;;;;;4.43;2.30;;;28.50;77.80;;;;;;5035150;28;20064;-51
2022/06/29 12:10:55;;;;;;;;;;;29.00;76.60;;;;;;5035719;28;20049;-51
2022/06/29 12:13:21;;;;;;;4.53;2.63;;;29.30;76.60;;;;;;5035080;28;20048;-50
2022/06/29 12:15:47;;;;;;;5.28;2.58;;;29.10;75.20;;;;;;5035250;28;20492;-51
2022/06/29 12:18:14;;;;;;;4.78;2.40;;;29.00;76.60;;;;;;5035018;28;20041;-50
2022/06/29 12:20:39;;;;;;;;;;;28.90;76.00;;;;;;5035179;28;20037;-52
2022/06/29 12:23:05;;;;;;;6.17;2.40;;;28.80;75.90;;;;;;5034123;28;19928;-49
2022/06/29 12:25:30;;;;;;;4.80;3.15;;;29.00;76.30;;;;;;5033839;28;20571;-51
2022/06/29 12:27:56;;;;;;;4.72;2.65;;;29.00;76.00;;;;;;5035064;28;20515;-50
2022/06/29 12:30:21;;;;;;;4.70;2.28;;;28.90;75.80;;;;;;5034718;28;20369;-53
2022/06/29 12:32:47;;;;;;;3.20;2.40;;;29.00;76.90;;;;;;5033525;28;20050;-52
2022/06/29 12:35:13;;;;;;;5.75;2.72;;;29.30;75.50;;;;;;5016978;28;20515;-53
2022/06/29 12:37:43;;;;;;;4.20;2.40;;;29.10;74.80;;;;;;5034824;28;20112;-51
2022/06/29 12:40:11;;;;;;;4.75;2.88;;;28.90;75.60;;;;;;5016731;28;20061;-52
2022/06/29 12:42:37;;;;;;;3.15;2.63;;;28.50;76.30;;;;;;5016850;28;20034;-50
2022/06/29 12:45:04;;;;;;;2.50;2.30;;;28.50;76.30;;;;;;5034308;28;20037;-50
2022/06/29 12:47:30;;;;;;;3.22;2.72;;;28.90;78.00;;;;;;5034348;28;20041;-53
2022/06/29 12:49:56;;;;;;;3.28;2.90;;;28.80;77.00;;;;;;5034550;28;20041;-52
2022/06/29 12:52:24;;;;;;;4.95;3.03;;;28.90;76.20;;;;;;5034230;28;20057;-53
2022/06/29 12:54:50;;;;;;;2.55;2.35;;;29.00;77.00;;;;;;5034453;28;20077;-53
2022/06/29 12:57:16;;;;;;;4.55;2.75;;;29.40;76.40;;;;;;5034356;28;20463;-52
2022/06/29 12:59:42;;;;;;;3.90;2.88;;;28.90;74.10;;;;;;5034150;28;20046;-52
2022/06/29 13:02:08;;;;;;;4.77;2.63;;;28.80;74.20;;;;;;5034119;28;20095;-53
2022/06/29 13:04:34;;;;;;;4.25;2.80;;;29.00;75.70;;;;;;5034487;28;20085;-49
2022/06/29 13:07:00;;;;;;;3.25;2.42;;;29.10;75.00;;;;;;5034280;28;20162;-50
2022/06/29 13:09:26;;;;;;;4.38;2.40;;;29.10;74.70;;;;;;5034163;28;20048;-52
2022/06/29 13:11:51;;;;;;;4.25;2.40;;;29.40;76.30;;;;;;5034184;28;20053;-54
2022/06/29 13:14:17;;;;;;;2.65;2.45;;;29.40;74.00;;;;;;5033990;28;20411;-52